createdAt,value
2018-12-29T00:00:10.383Z,2.85
2018-12-29T00:01:08.735Z,2.85
2018-12-29T00:02:08.925Z,2.82
2018-12-29T00:03:09.095Z,2.83
2018-12-29T00:04:09.261Z,2.82
2018-12-29T00:05:09.425Z,2.85
2018-12-29T00:06:11.452Z,2.85
2018-12-29T00:07:11.369Z,2.85
2018-12-29T00:08:09.963Z,2.83
2018-12-29T00:09:10.157Z,2.77
2018-12-29T00:10:10.320Z,2.83
2018-12-29T00:11:10.516Z,2.85
2018-12-29T00:12:12.419Z,2.85
2018-12-29T00:13:10.873Z,2.83
2018-12-29T00:14:13.011Z,2.87
2018-12-29T00:15:11.230Z,2.83
2018-12-29T00:16:11.400Z,2.85
2018-12-29T00:17:13.347Z,2.83
2018-12-29T00:18:11.692Z,2.85
2018-12-29T00:19:11.860Z,2.82
2018-12-29T00:20:12.043Z,2.85
2018-12-29T00:21:12.240Z,2.85
2018-12-29T00:22:12.434Z,2.95
2018-12-29T00:23:12.595Z,2.93
2018-12-29T00:24:12.852Z,3.00
2018-12-29T00:25:12.964Z,2.97
2018-12-29T00:26:13.157Z,3.03
2018-12-29T00:27:13.384Z,2.97
2018-12-29T00:28:13.520Z,2.93
2018-12-29T00:29:13.684Z,3.00
2018-12-29T00:30:16.112Z,3.04
2018-12-29T00:31:14.033Z,2.98
2018-12-29T00:32:14.201Z,3.08
2018-12-29T00:33:14.361Z,2.98
2018-12-29T00:34:14.529Z,3.05
2018-12-29T00:35:14.686Z,3.01
2018-12-29T00:36:16.926Z,3.03
2018-12-29T00:37:14.996Z,3.01
2018-12-29T00:38:15.164Z,3.01
2018-12-29T00:39:15.334Z,3.07
2018-12-29T00:40:15.494Z,3.03
2018-12-29T00:41:15.685Z,3.01
2018-12-29T00:42:15.861Z,3.05
2018-12-29T00:43:16.051Z,3.07
2018-12-29T00:44:16.217Z,3.05
2018-12-29T00:45:16.399Z,3.05
2018-12-29T00:46:16.545Z,3.03
2018-12-29T00:47:18.408Z,3.08
2018-12-29T00:48:16.875Z,3.04
2018-12-29T00:49:17.037Z,3.07
2018-12-29T00:50:17.216Z,3.03
2018-12-29T00:51:17.383Z,3.07
2018-12-29T00:52:19.489Z,3.05
2018-12-29T00:53:17.674Z,3.04
2018-12-29T00:54:18.214Z,3.08
2018-12-29T00:55:17.958Z,3.07
2018-12-29T00:56:19.923Z,3.00
2018-12-29T00:57:18.239Z,3.08
2018-12-29T00:58:21.387Z,3.10
2018-12-29T00:59:18.576Z,3.10
2018-12-29T01:00:18.741Z,3.21
2018-12-29T01:01:18.902Z,3.10
2018-12-29T01:02:19.067Z,3.05
2018-12-29T01:03:19.252Z,3.01
2018-12-29T01:04:19.358Z,3.03
2018-12-29T01:05:19.540Z,2.93
2018-12-29T01:06:19.697Z,2.90
2018-12-29T01:07:19.858Z,2.83
2018-12-29T01:08:20.022Z,2.90
2018-12-29T01:09:21.922Z,2.90
2018-12-29T01:10:20.449Z,2.87
2018-12-29T01:11:20.527Z,2.86
2018-12-29T01:12:20.730Z,2.83
2018-12-29T01:13:20.922Z,2.93
2018-12-29T01:14:21.033Z,2.86
2018-12-29T01:15:21.093Z,2.89
2018-12-29T01:16:23.107Z,2.95
2018-12-29T01:17:21.472Z,2.90
2018-12-29T01:18:21.617Z,3.03
2018-12-29T01:19:21.794Z,3.05
2018-12-29T01:20:21.936Z,3.10
2018-12-29T01:21:26.253Z,3.00
2018-12-29T01:22:25.826Z,3.03
2018-12-29T01:23:26.334Z,3.11
2018-12-29T01:24:22.611Z,3.11
2018-12-29T01:25:22.823Z,3.11
2018-12-29T01:26:22.972Z,3.16
2018-12-29T01:27:23.182Z,3.19
2018-12-29T01:28:23.373Z,3.08
2018-12-29T01:29:25.515Z,3.11
2018-12-29T01:30:23.730Z,3.05
2018-12-29T01:31:23.920Z,3.00
2018-12-29T01:32:24.055Z,3.11
2018-12-29T01:33:24.221Z,3.10
2018-12-29T01:34:24.449Z,3.11
2018-12-29T01:35:26.348Z,3.00
2018-12-29T01:36:26.426Z,3.10
2018-12-29T01:37:24.966Z,3.03
2018-12-29T01:38:27.268Z,3.13
2018-12-29T01:39:25.317Z,2.98
2018-12-29T01:40:25.487Z,3.03
2018-12-29T01:41:25.671Z,2.97
2018-12-29T01:42:25.802Z,3.03
2018-12-29T01:43:28.061Z,3.00
2018-12-29T01:44:26.047Z,2.86
2018-12-29T01:45:26.211Z,2.93
2018-12-29T01:46:26.411Z,3.01
2018-12-29T01:47:26.578Z,2.93
2018-12-29T01:48:26.749Z,2.90
2018-12-29T01:49:26.917Z,3.00
2018-12-29T01:50:27.097Z,3.01
2018-12-29T01:51:27.285Z,2.97
2018-12-29T01:52:27.455Z,2.98
2018-12-29T01:53:27.626Z,2.95
2018-12-29T01:54:27.981Z,3.04
2018-12-29T01:55:27.997Z,3.08
2018-12-29T01:56:29.997Z,3.11
2018-12-29T01:57:28.374Z,3.16
2018-12-29T01:58:28.575Z,3.16
2018-12-29T01:59:28.734Z,3.11
2018-12-29T02:00:28.904Z,3.11
2018-12-29T02:01:29.059Z,3.05
2018-12-29T02:02:29.248Z,3.00
2018-12-29T02:03:29.393Z,3.01
2018-12-29T02:04:29.639Z,2.98
2018-12-29T02:05:29.757Z,2.98
2018-12-29T02:06:29.905Z,2.90
2018-12-29T02:07:30.066Z,2.92
2018-12-29T02:08:30.239Z,2.92
2018-12-29T02:09:30.429Z,2.93
2018-12-29T02:10:30.603Z,2.97
2018-12-29T02:11:30.762Z,3.01
2018-12-29T02:12:30.940Z,3.04
2018-12-29T02:13:31.138Z,2.98
2018-12-29T02:14:31.260Z,2.95
2018-12-29T02:15:31.513Z,3.01
2018-12-29T02:16:31.643Z,2.98
2018-12-29T02:17:31.809Z,3.03
2018-12-29T02:18:31.982Z,3.05
2018-12-29T02:19:35.944Z,3.00
2018-12-29T02:20:32.252Z,3.11
2018-12-29T02:21:32.433Z,3.23
2018-12-29T02:22:32.577Z,3.14
2018-12-29T02:23:34.373Z,3.04
2018-12-29T02:24:32.933Z,3.05
2018-12-29T02:25:33.094Z,3.03
2018-12-29T02:26:35.083Z,3.04
2018-12-29T02:27:33.427Z,3.03
2018-12-29T02:28:33.597Z,2.98
2018-12-29T02:29:35.366Z,2.90
2018-12-29T02:30:33.922Z,3.07
2018-12-29T02:31:34.085Z,3.07
2018-12-29T02:32:34.257Z,3.00
2018-12-29T02:33:36.355Z,3.05
2018-12-29T02:34:34.570Z,2.97
2018-12-29T02:35:34.739Z,3.04
2018-12-29T02:36:34.905Z,3.05
2018-12-29T02:37:35.076Z,3.19
2018-12-29T02:38:35.269Z,3.19
2018-12-29T02:39:35.488Z,3.25
2018-12-29T02:40:35.632Z,3.19
2018-12-29T02:41:35.815Z,3.19
2018-12-29T02:42:35.981Z,3.25
2018-12-29T02:43:36.149Z,3.21
2018-12-29T02:44:36.308Z,3.22
2018-12-29T02:45:39.331Z,3.26
2018-12-29T02:46:36.616Z,3.25
2018-12-29T02:47:36.785Z,3.36
2018-12-29T02:48:36.964Z,3.32
2018-12-29T02:49:37.187Z,3.36
2018-12-29T02:50:37.354Z,3.22
2018-12-29T02:51:37.519Z,3.23
2018-12-29T02:52:37.727Z,3.21
2018-12-29T02:53:41.617Z,3.14
2018-12-29T02:54:37.982Z,3.05
2018-12-29T02:55:38.167Z,3.19
2018-12-29T02:56:38.338Z,3.10
2018-12-29T02:57:38.502Z,3.18
2018-12-29T02:58:38.707Z,3.21
2018-12-29T02:59:38.869Z,3.26
2018-12-29T03:00:39.062Z,3.19
2018-12-29T03:01:40.956Z,3.26
2018-12-29T03:02:39.338Z,3.21
2018-12-29T03:03:39.479Z,3.23
2018-12-29T03:04:39.651Z,3.25
2018-12-29T03:05:39.831Z,3.29
2018-12-29T03:06:41.910Z,3.23
2018-12-29T03:07:40.211Z,3.25
2018-12-29T03:08:40.375Z,3.22
2018-12-29T03:09:40.541Z,3.32
2018-12-29T03:10:40.701Z,3.37
2018-12-29T03:11:40.860Z,3.40
2018-12-29T03:12:41.065Z,3.40
2018-12-29T03:13:41.205Z,3.37
2018-12-29T03:14:44.425Z,3.26
2018-12-29T03:15:42.050Z,3.28
2018-12-29T03:16:41.693Z,3.13
2018-12-29T03:17:41.853Z,3.26
2018-12-29T03:18:42.026Z,3.25
2018-12-29T03:19:42.200Z,3.34
2018-12-29T03:20:42.374Z,3.41
2018-12-29T03:21:42.535Z,3.42
2018-12-29T03:22:42.732Z,3.41
2018-12-29T03:23:42.823Z,3.28
2018-12-29T03:24:45.080Z,3.18
2018-12-29T03:25:43.264Z,3.29
2018-12-29T03:26:43.387Z,3.32
2018-12-29T03:27:43.499Z,3.28
2018-12-29T03:28:43.703Z,3.22
2018-12-29T03:29:43.885Z,3.14
2018-12-29T03:30:44.067Z,3.18
2018-12-29T03:31:44.240Z,3.25
2018-12-29T03:32:44.411Z,3.28
2018-12-29T03:33:44.569Z,3.18
2018-12-29T03:34:44.719Z,3.23
2018-12-29T03:35:44.887Z,3.14
2018-12-29T03:36:45.244Z,3.10
2018-12-29T03:37:45.195Z,3.21
2018-12-29T03:38:45.320Z,3.16
2018-12-29T03:39:45.485Z,3.19
2018-12-29T03:40:45.654Z,3.13
2018-12-29T03:41:45.943Z,3.28
2018-12-29T03:42:45.987Z,3.26
2018-12-29T03:43:46.136Z,3.28
2018-12-29T03:44:46.306Z,3.14
2018-12-29T03:45:49.233Z,3.16
2018-12-29T03:46:46.630Z,3.13
2018-12-29T03:47:46.879Z,3.13
2018-12-29T03:48:46.967Z,3.18
2018-12-29T03:49:48.853Z,3.26
2018-12-29T03:50:47.306Z,3.23
2018-12-29T03:51:47.473Z,3.21
2018-12-29T03:52:47.664Z,3.21
2018-12-29T03:53:47.818Z,3.40
2018-12-29T03:54:48.022Z,3.37
2018-12-29T03:55:48.179Z,3.37
2018-12-29T03:56:48.348Z,3.41
2018-12-29T03:57:57.200Z,3.37
2018-12-29T03:58:57.180Z,3.36
2018-12-29T03:59:57.221Z,3.41
2018-12-29T04:00:57.614Z,3.40
2018-12-29T04:01:57.762Z,3.37
2018-12-29T04:02:57.326Z,3.48
2018-12-29T04:03:57.393Z,3.47
2018-12-29T04:04:50.357Z,3.37
2018-12-29T04:05:50.043Z,3.40
2018-12-29T04:06:50.224Z,3.40
2018-12-29T04:07:50.333Z,3.32
2018-12-29T04:08:50.420Z,3.40
2018-12-29T04:09:50.649Z,3.37
2018-12-29T04:10:50.606Z,3.41
2018-12-29T04:11:50.964Z,3.40
2018-12-29T04:12:52.580Z,3.40
2018-12-29T04:13:51.181Z,3.47
2018-12-29T04:14:51.213Z,3.40
2018-12-29T04:15:57.913Z,3.47
2018-12-29T04:16:51.550Z,3.47
2018-12-29T04:17:51.527Z,3.50
2018-12-29T04:18:51.603Z,3.50
2018-12-29T04:19:51.824Z,3.37
2018-12-29T04:20:51.919Z,3.40
2018-12-29T04:21:51.976Z,3.47
2018-12-29T04:22:52.264Z,3.40
2018-12-29T04:23:54.003Z,3.37
2018-12-29T04:24:52.541Z,3.45
2018-12-29T04:25:52.642Z,3.40
2018-12-29T04:26:52.881Z,3.40
2018-12-29T04:27:53.122Z,3.40
2018-12-29T04:28:53.219Z,3.37
2018-12-29T04:29:53.290Z,3.41
2018-12-29T04:30:53.485Z,3.44
2018-12-29T04:31:53.758Z,3.47
2018-12-29T04:32:53.854Z,3.48
2018-12-29T04:33:54.037Z,3.51
2018-12-29T04:34:54.108Z,3.50
2018-12-29T04:35:54.197Z,3.48
2018-12-29T04:36:54.324Z,3.47
2018-12-29T04:37:54.455Z,3.51
2018-12-29T04:38:54.513Z,3.40
2018-12-29T04:39:54.800Z,3.32
2018-12-29T04:40:56.633Z,3.37
2018-12-29T04:41:55.106Z,3.48
2018-12-29T04:42:55.295Z,3.36
2018-12-29T04:43:55.454Z,3.44
2018-12-29T04:44:55.485Z,3.55
2018-12-29T04:45:55.550Z,3.51
2018-12-29T04:46:55.690Z,3.45
2018-12-29T04:47:55.981Z,3.58
2018-12-29T04:48:56.043Z,3.50
2018-12-29T04:49:56.261Z,3.47
2018-12-29T04:50:56.553Z,3.48
2018-12-29T04:51:56.723Z,3.53
2018-12-29T04:52:57.027Z,3.34
2018-12-29T04:53:57.104Z,3.58
2018-12-29T04:54:57.358Z,3.53
2018-12-29T04:55:57.450Z,3.47
2018-12-29T04:56:59.095Z,3.62
2018-12-29T04:57:59.527Z,3.58
2018-12-29T04:58:57.715Z,3.58
2018-12-29T04:59:57.986Z,3.59
2018-12-29T05:00:58.262Z,3.58
2018-12-29T05:01:58.402Z,3.60
2018-12-29T05:02:58.373Z,3.66
2018-12-29T05:03:58.530Z,3.58
2018-12-29T05:04:58.613Z,3.65
2018-12-29T05:05:58.896Z,3.58
2018-12-29T05:06:58.839Z,3.58
2018-12-29T05:08:03.080Z,3.58
2018-12-29T05:08:59.270Z,3.68
2018-12-29T05:09:59.551Z,3.62
2018-12-29T05:10:59.486Z,3.56
2018-12-29T05:11:59.766Z,3.55
2018-12-29T05:12:59.846Z,3.62
2018-12-29T05:13:59.968Z,3.56
2018-12-29T05:15:00.182Z,3.65
2018-12-29T05:16:00.477Z,3.66
2018-12-29T05:17:00.489Z,3.65
2018-12-29T05:18:00.574Z,3.73
2018-12-29T05:19:00.894Z,3.66
2018-12-29T05:20:01.009Z,3.73
2018-12-29T05:21:01.147Z,3.68
2018-12-29T05:22:01.282Z,3.70
2018-12-29T05:23:01.459Z,3.66
2018-12-29T05:24:01.556Z,3.69
2018-12-29T05:25:01.616Z,3.74
2018-12-29T05:26:02.078Z,3.74
2018-12-29T05:27:02.141Z,3.78
2018-12-29T05:28:02.235Z,3.68
2018-12-29T05:29:02.301Z,3.59
2018-12-29T05:30:02.557Z,3.63
2018-12-29T05:31:02.657Z,3.59
2018-12-29T05:32:02.863Z,3.68
2018-12-29T05:33:03.232Z,3.59
2018-12-29T05:34:03.272Z,3.58
2018-12-29T05:35:03.425Z,3.59
2018-12-29T05:36:03.633Z,3.65
2018-12-29T05:37:03.697Z,3.55
2018-12-29T05:38:03.981Z,3.73
2018-12-29T05:39:04.137Z,3.77
2018-12-29T05:40:04.343Z,3.70
2018-12-29T05:41:04.376Z,3.70
2018-12-29T05:42:04.590Z,3.69
2018-12-29T05:43:04.708Z,3.70
2018-12-29T05:44:04.839Z,3.76
2018-12-29T05:45:05.181Z,3.69
2018-12-29T05:46:05.075Z,3.68
2018-12-29T05:47:05.169Z,3.70
2018-12-29T05:48:07.016Z,3.74
2018-12-29T05:49:05.509Z,3.77
2018-12-29T05:50:05.474Z,3.73
2018-12-29T05:51:05.703Z,3.70
2018-12-29T05:52:07.651Z,3.83
2018-12-29T05:53:06.047Z,3.80
2018-12-29T05:54:06.486Z,3.80
2018-12-29T05:55:06.532Z,3.86
2018-12-29T05:56:08.559Z,3.94
2018-12-29T05:57:06.861Z,3.81
2018-12-29T05:58:06.951Z,3.87
2018-12-29T05:59:07.667Z,3.87
2018-12-29T06:00:07.276Z,3.91
2018-12-29T06:01:07.475Z,3.86
2018-12-29T06:02:07.673Z,3.91
2018-12-29T06:03:07.788Z,3.86
2018-12-29T06:04:07.902Z,3.86
2018-12-29T06:05:08.055Z,3.96
2018-12-29T06:06:10.019Z,3.91
2018-12-29T06:07:08.489Z,3.95
2018-12-29T06:08:08.558Z,3.88
2018-12-29T06:09:11.575Z,3.92
2018-12-29T06:10:08.783Z,3.88
2018-12-29T06:11:08.988Z,3.87
2018-12-29T06:12:09.239Z,3.91
2018-12-29T06:13:09.414Z,3.91
2018-12-29T06:14:09.536Z,3.94
2018-12-29T06:15:11.538Z,3.88
2018-12-29T06:16:09.943Z,3.91
2018-12-29T06:17:09.997Z,3.81
2018-12-29T06:18:10.137Z,3.88
2018-12-29T06:19:10.430Z,3.88
2018-12-29T06:20:10.536Z,3.83
2018-12-29T06:21:10.634Z,3.84
2018-12-29T06:22:10.724Z,3.84
2018-12-29T06:23:11.019Z,3.83
2018-12-29T06:24:11.101Z,3.91
2018-12-29T06:25:11.408Z,3.86
2018-12-29T06:26:11.541Z,3.77
2018-12-29T06:27:11.669Z,3.80
2018-12-29T06:28:11.741Z,3.88
2018-12-29T06:29:12.006Z,3.74
2018-12-29T06:30:12.112Z,3.81
2018-12-29T06:31:12.346Z,3.80
2018-12-29T06:32:12.359Z,3.86
2018-12-29T06:33:12.580Z,3.84
2018-12-29T06:34:12.623Z,3.88
2018-12-29T06:35:15.619Z,3.86
2018-12-29T06:36:12.959Z,3.92
2018-12-29T06:37:13.186Z,3.92
2018-12-29T06:38:13.419Z,3.91
2018-12-29T06:39:13.382Z,3.92
2018-12-29T06:40:13.583Z,3.88
2018-12-29T06:41:13.815Z,3.91
2018-12-29T06:42:13.890Z,3.94
2018-12-29T06:43:14.196Z,3.92
2018-12-29T06:44:14.417Z,3.88
2018-12-29T06:45:17.203Z,3.87
2018-12-29T06:46:14.546Z,3.87
2018-12-29T06:47:14.661Z,3.95
2018-12-29T06:48:14.759Z,3.94
2018-12-29T06:49:15.069Z,3.96
2018-12-29T06:50:15.105Z,3.94
2018-12-29T06:51:15.165Z,4.02
2018-12-29T06:52:15.378Z,3.94
2018-12-29T06:53:15.579Z,3.95
2018-12-29T06:54:15.778Z,3.87
2018-12-29T06:55:15.975Z,3.99
2018-12-29T06:56:16.201Z,3.94
2018-12-29T06:57:16.260Z,3.81
2018-12-29T06:58:16.427Z,3.88
2018-12-29T06:59:16.510Z,3.69
2018-12-29T07:00:16.570Z,3.78
2018-12-29T07:01:16.753Z,3.83
2018-12-29T07:02:16.985Z,3.91
2018-12-29T07:03:17.119Z,3.92
2018-12-29T07:04:17.222Z,3.99
2018-12-29T07:05:17.292Z,3.98
2018-12-29T07:06:17.498Z,4.01
2018-12-29T07:07:17.705Z,3.92
2018-12-29T07:08:17.843Z,4.01
2018-12-29T07:09:17.924Z,3.88
2018-12-29T07:10:18.164Z,3.92
2018-12-29T07:11:18.318Z,3.94
2018-12-29T07:12:18.460Z,3.92
2018-12-29T07:13:18.553Z,3.99
2018-12-29T07:14:18.837Z,4.01
2018-12-29T07:15:18.885Z,3.99
2018-12-29T07:16:19.092Z,3.98
2018-12-29T07:17:19.313Z,3.96
2018-12-29T07:18:19.570Z,4.01
2018-12-29T07:19:19.746Z,3.98
2018-12-29T07:20:19.693Z,3.94
2018-12-29T07:21:19.855Z,3.87
2018-12-29T07:22:19.936Z,3.88
2018-12-29T07:23:20.162Z,3.98
2018-12-29T07:24:20.498Z,3.94
2018-12-29T07:25:20.614Z,4.01
2018-12-29T07:26:20.748Z,3.99
2018-12-29T07:27:20.823Z,3.99
2018-12-29T07:28:21.221Z,3.95
2018-12-29T07:29:21.151Z,4.01
2018-12-29T07:30:21.364Z,4.12
2018-12-29T07:31:21.556Z,4.12
2018-12-29T07:32:21.816Z,4.06
2018-12-29T07:33:21.944Z,4.05
2018-12-29T07:34:22.134Z,4.01
2018-12-29T07:35:22.461Z,4.12
2018-12-29T07:36:22.606Z,3.95
2018-12-29T07:37:22.688Z,4.06
2018-12-29T07:38:22.863Z,4.08
2018-12-29T07:39:23.169Z,4.12
2018-12-29T07:40:23.262Z,4.13
2018-12-29T07:41:25.066Z,3.96
2018-12-29T07:42:23.465Z,4.08
2018-12-29T07:43:23.667Z,4.06
2018-12-29T07:44:23.734Z,4.05
2018-12-29T07:45:24.094Z,3.99
2018-12-29T07:46:24.151Z,3.99
2018-12-29T07:47:24.253Z,3.99
2018-12-29T07:48:24.341Z,3.92
2018-12-29T07:49:24.693Z,4.02
2018-12-29T07:50:24.753Z,3.96
2018-12-29T07:51:24.858Z,3.95
2018-12-29T07:52:25.030Z,4.01
2018-12-29T07:53:25.124Z,4.01
2018-12-29T07:54:25.259Z,3.98
2018-12-29T07:55:25.570Z,3.95
2018-12-29T07:56:25.529Z,3.96
2018-12-29T07:57:25.765Z,3.87
2018-12-29T07:58:25.836Z,3.84
2018-12-29T07:59:26.044Z,3.88
2018-12-29T08:00:26.375Z,3.96
2018-12-29T08:01:28.060Z,3.88
2018-12-29T08:02:26.687Z,3.91
2018-12-29T08:03:26.877Z,3.86
2018-12-29T08:04:27.013Z,3.92
2018-12-29T08:05:27.120Z,3.96
2018-12-29T08:06:27.212Z,3.92
2018-12-29T08:07:27.442Z,3.86
2018-12-29T08:08:27.519Z,3.99
2018-12-29T08:09:27.793Z,4.01
2018-12-29T08:10:27.880Z,3.99
2018-12-29T08:11:28.093Z,3.95
2018-12-29T08:12:30.017Z,3.92
2018-12-29T08:13:28.464Z,3.88
2018-12-29T08:14:28.591Z,3.96
2018-12-29T08:15:28.698Z,3.87
2018-12-29T08:16:28.863Z,3.95
2018-12-29T08:17:29.105Z,4.01
2018-12-29T08:18:29.246Z,4.01
2018-12-29T08:19:29.315Z,4.05
2018-12-29T08:20:29.512Z,3.96
2018-12-29T08:21:30.590Z,4.08
2018-12-29T08:22:29.709Z,3.99
2018-12-29T08:23:29.996Z,3.94
2018-12-29T08:24:30.250Z,3.94
2018-12-29T08:25:30.293Z,4.08
2018-12-29T08:26:32.565Z,4.05
2018-12-29T08:27:30.750Z,4.01
2018-12-29T08:28:30.979Z,3.99
2018-12-29T08:29:31.021Z,4.17
2018-12-29T08:30:31.282Z,4.06
2018-12-29T08:31:31.401Z,4.12
2018-12-29T08:32:31.491Z,4.17
2018-12-29T08:33:31.590Z,4.16
2018-12-29T08:34:31.679Z,4.24
2018-12-29T08:35:31.902Z,4.26
2018-12-29T08:36:32.099Z,4.30
2018-12-29T08:37:32.245Z,4.24
2018-12-29T08:38:32.341Z,4.22
2018-12-29T08:39:32.617Z,4.23
2018-12-29T08:40:32.691Z,4.28
2018-12-29T08:41:32.851Z,4.31
2018-12-29T08:42:33.037Z,4.31
2018-12-29T08:43:33.145Z,4.38
2018-12-29T08:44:33.325Z,4.34
2018-12-29T08:45:33.535Z,4.38
2018-12-29T08:46:36.030Z,4.44
2018-12-29T08:47:33.766Z,4.34
2018-12-29T08:48:33.875Z,4.28
2018-12-29T08:49:34.090Z,4.42
2018-12-29T08:50:34.077Z,4.31
2018-12-29T08:51:34.164Z,4.37
2018-12-29T08:52:34.416Z,4.38
2018-12-29T08:53:34.478Z,4.42
2018-12-29T08:54:34.728Z,4.41
2018-12-29T08:55:34.831Z,4.45
2018-12-29T08:56:34.917Z,4.41
2018-12-29T08:57:35.102Z,4.38
2018-12-29T08:58:35.338Z,4.32
2018-12-29T08:59:35.348Z,4.49
2018-12-29T09:00:35.599Z,4.52
2018-12-29T09:01:37.548Z,4.35
2018-12-29T09:02:35.824Z,4.44
2018-12-29T09:03:35.970Z,4.49
2018-12-29T09:04:36.091Z,4.41
2018-12-29T09:05:36.357Z,4.42
2018-12-29T09:06:36.314Z,4.40
2018-12-29T09:07:36.548Z,4.35
2018-12-29T09:08:36.678Z,4.37
2018-12-29T09:09:36.832Z,4.24
2018-12-29T09:10:36.897Z,4.24
2018-12-29T09:11:37.125Z,4.22
2018-12-29T09:12:37.228Z,4.20
2018-12-29T09:13:37.357Z,4.26
2018-12-29T09:14:37.447Z,4.28
2018-12-29T09:15:39.181Z,4.30
2018-12-29T09:16:37.864Z,4.26
2018-12-29T09:17:38.024Z,4.19
2018-12-29T09:18:38.118Z,4.23
2018-12-29T09:19:38.273Z,4.28
2018-12-29T09:20:38.405Z,4.22
2018-12-29T09:21:38.442Z,4.23
2018-12-29T09:22:38.550Z,4.23
2018-12-29T09:23:38.739Z,4.30
2018-12-29T09:24:38.933Z,4.38
2018-12-29T09:25:39.121Z,4.26
2018-12-29T09:26:39.313Z,4.26
2018-12-29T09:27:39.475Z,4.22
2018-12-29T09:28:39.617Z,4.26
2018-12-29T09:29:39.748Z,4.28
2018-12-29T09:30:39.985Z,4.32
2018-12-29T09:31:40.193Z,4.40
2018-12-29T09:32:40.640Z,4.31
2018-12-29T09:33:40.476Z,4.38
2018-12-29T09:34:40.550Z,4.20
2018-12-29T09:35:40.802Z,4.22
2018-12-29T09:36:40.869Z,4.22
2018-12-29T09:37:41.084Z,4.22
2018-12-29T09:38:41.332Z,4.10
2018-12-29T09:39:41.404Z,4.14
2018-12-29T09:40:41.675Z,4.17
2018-12-29T09:41:41.824Z,4.10
2018-12-29T09:42:41.956Z,4.12
2018-12-29T09:43:42.146Z,4.10
2018-12-29T09:44:44.166Z,4.24
2018-12-29T09:45:42.490Z,4.26
2018-12-29T09:46:42.593Z,4.37
2018-12-29T09:47:42.658Z,4.41
2018-12-29T09:48:42.797Z,4.26
2018-12-29T09:49:43.004Z,4.42
2018-12-29T09:50:43.210Z,4.32
2018-12-29T09:51:43.467Z,4.52
2018-12-29T09:52:43.666Z,4.40
2018-12-29T09:53:43.753Z,4.38
2018-12-29T09:54:44.108Z,4.48
2018-12-29T09:55:44.089Z,4.45
2018-12-29T09:56:44.151Z,4.53
2018-12-29T09:57:44.403Z,4.49
2018-12-29T09:58:44.475Z,4.45
2018-12-29T09:59:45.731Z,4.45
2018-12-29T10:00:44.861Z,4.50
2018-12-29T10:01:45.083Z,4.49
2018-12-29T10:02:45.080Z,4.48
2018-12-29T10:03:45.155Z,4.53
2018-12-29T10:04:45.466Z,4.55
2018-12-29T10:05:45.579Z,4.55
2018-12-29T10:06:45.744Z,4.63
2018-12-29T10:07:45.831Z,4.74
2018-12-29T10:08:45.927Z,4.74
2018-12-29T10:09:46.208Z,4.56
2018-12-29T10:10:46.365Z,4.50
2018-12-29T10:11:46.539Z,4.53
2018-12-29T10:12:46.620Z,4.48
2018-12-29T10:13:47.170Z,4.52
2018-12-29T10:14:46.997Z,4.53
2018-12-29T10:15:47.254Z,4.58
2018-12-29T10:16:47.338Z,4.62
2018-12-29T10:17:47.626Z,4.75
2018-12-29T10:18:47.766Z,4.71
2018-12-29T10:19:47.876Z,4.93
2018-12-29T10:20:48.520Z,4.82
2018-12-29T10:21:48.164Z,4.84
2018-12-29T10:22:48.281Z,4.78
2018-12-29T10:23:48.447Z,4.75
2018-12-29T10:24:48.704Z,4.84
2018-12-29T10:25:48.756Z,4.84
2018-12-29T10:26:48.881Z,4.84
2018-12-29T10:27:48.942Z,4.84
2018-12-29T10:28:49.241Z,4.87
2018-12-29T10:29:49.192Z,4.87
2018-12-29T10:30:49.394Z,4.90
2018-12-29T10:31:49.656Z,5.00
2018-12-29T10:32:49.750Z,4.94
2018-12-29T10:33:49.973Z,4.90
2018-12-29T10:34:50.203Z,4.87
2018-12-29T10:35:50.189Z,4.96
2018-12-29T10:36:50.367Z,4.94
2018-12-29T10:37:50.656Z,4.96
2018-12-29T10:38:50.612Z,4.90
2018-12-29T10:39:51.000Z,4.87
2018-12-29T10:40:50.992Z,4.93
2018-12-29T10:41:51.050Z,4.89
2018-12-29T10:42:51.302Z,4.97
2018-12-29T10:43:51.369Z,4.96
2018-12-29T10:44:51.619Z,4.86
2018-12-29T10:45:51.972Z,4.92
2018-12-29T10:46:52.082Z,4.92
2018-12-29T10:47:52.092Z,4.94
2018-12-29T10:48:52.190Z,4.86
2018-12-29T10:49:52.284Z,4.84
2018-12-29T10:50:52.758Z,4.86
2018-12-29T10:51:52.709Z,4.86
2018-12-29T10:52:53.002Z,4.78
2018-12-29T10:53:52.977Z,4.86
2018-12-29T10:54:53.255Z,4.84
2018-12-29T10:55:53.269Z,4.66
2018-12-29T10:56:53.342Z,4.73
2018-12-29T10:57:53.333Z,4.77
2018-12-29T10:58:53.517Z,4.70
2018-12-29T10:59:53.773Z,4.80
2018-12-29T11:00:53.879Z,4.70
2018-12-29T11:01:53.950Z,4.82
2018-12-29T11:02:54.181Z,4.75
2018-12-29T11:03:54.272Z,4.75
2018-12-29T11:04:54.532Z,4.75
2018-12-29T11:05:54.633Z,4.73
2018-12-29T11:06:56.538Z,4.74
2018-12-29T11:07:54.956Z,4.66
2018-12-29T11:08:56.530Z,4.75
2018-12-29T11:09:55.271Z,4.60
2018-12-29T11:10:55.355Z,4.58
2018-12-29T11:11:55.611Z,4.67
2018-12-29T11:12:56.526Z,4.78
2018-12-29T11:13:55.858Z,4.70
2018-12-29T11:14:56.633Z,4.71
2018-12-29T11:15:56.105Z,4.70
2018-12-29T11:16:56.214Z,4.75
2018-12-29T11:17:56.388Z,4.80
2018-12-29T11:18:56.555Z,4.78
2018-12-29T11:19:56.669Z,4.70
2018-12-29T11:20:56.727Z,4.73
2018-12-29T11:21:57.039Z,4.80
2018-12-29T11:22:59.083Z,4.75
2018-12-29T11:23:57.258Z,4.77
2018-12-29T11:24:57.537Z,4.71
2018-12-29T11:25:57.715Z,4.87
2018-12-29T11:26:58.512Z,4.90
2018-12-29T11:27:58.036Z,4.93
2018-12-29T11:28:58.207Z,4.86
2018-12-29T11:29:58.349Z,4.93
2018-12-29T11:30:59.238Z,5.00
2018-12-29T11:31:58.588Z,4.93
2018-12-29T11:32:58.735Z,5.00
2018-12-29T11:33:58.981Z,5.05
2018-12-29T11:34:59.026Z,5.14
2018-12-29T11:35:59.187Z,5.15
2018-12-29T11:36:59.339Z,5.12
2018-12-29T11:37:59.395Z,5.10
2018-12-29T11:38:59.894Z,5.00
2018-12-29T11:40:00.522Z,5.02
2018-12-29T11:40:59.905Z,5.04
2018-12-29T11:41:59.960Z,5.02
2018-12-29T11:43:00.123Z,5.10
2018-12-29T11:44:00.281Z,5.10
2018-12-29T11:45:00.475Z,5.17
2018-12-29T11:46:00.657Z,5.05
2018-12-29T11:47:00.848Z,5.15
2018-12-29T11:48:00.979Z,5.02
2018-12-29T11:49:02.045Z,4.99
2018-12-29T11:50:01.313Z,4.97
2018-12-29T11:51:01.499Z,5.05
2018-12-29T11:52:01.640Z,5.07
2018-12-29T11:53:01.834Z,5.08
2018-12-29T11:54:01.962Z,5.05
2018-12-29T11:55:02.153Z,5.10
2018-12-29T11:56:02.287Z,5.08
2018-12-29T11:57:02.447Z,5.14
2018-12-29T11:58:02.613Z,5.10
2018-12-29T11:59:02.796Z,5.04
2018-12-29T12:00:02.969Z,5.00
2018-12-29T12:01:03.135Z,5.08
2018-12-29T12:02:05.092Z,5.08
2018-12-29T12:03:03.475Z,5.07
2018-12-29T12:04:03.746Z,5.12
2018-12-29T12:05:03.761Z,5.02
2018-12-29T12:06:03.940Z,5.08
2018-12-29T12:07:04.110Z,5.14
2018-12-29T12:08:04.276Z,5.25
2018-12-29T12:09:04.436Z,5.21
2018-12-29T12:10:04.599Z,5.30
2018-12-29T12:11:04.760Z,5.26
2018-12-29T12:12:04.938Z,5.23
2018-12-29T12:13:07.042Z,5.28
2018-12-29T12:14:05.351Z,5.28
2018-12-29T12:15:05.393Z,5.23
2018-12-29T12:16:05.557Z,5.17
2018-12-29T12:17:05.725Z,5.17
2018-12-29T12:18:05.914Z,5.10
2018-12-29T12:19:06.096Z,5.12
2018-12-29T12:20:06.253Z,5.10
2018-12-29T12:21:06.416Z,5.02
2018-12-29T12:22:06.597Z,4.97
2018-12-29T12:23:06.779Z,4.97
2018-12-29T12:24:07.011Z,4.94
2018-12-29T12:25:07.128Z,4.92
2018-12-29T12:26:07.258Z,4.89
2018-12-29T12:27:08.435Z,4.87
2018-12-29T12:28:07.608Z,4.99
2018-12-29T12:29:07.774Z,5.04
2018-12-29T12:30:07.961Z,5.04
2018-12-29T12:31:08.121Z,5.04
2018-12-29T12:32:08.305Z,5.07
2018-12-29T12:33:08.475Z,4.93
2018-12-29T12:34:08.704Z,4.97
2018-12-29T12:35:08.865Z,4.87
2018-12-29T12:36:09.038Z,4.93
2018-12-29T12:37:12.078Z,4.87
2018-12-29T12:38:09.414Z,4.87
2018-12-29T12:39:11.537Z,4.71
2018-12-29T12:40:10.646Z,4.74
2018-12-29T12:41:10.001Z,4.82
2018-12-29T12:42:10.149Z,4.90
2018-12-29T12:43:10.310Z,4.93
2018-12-29T12:44:10.508Z,4.90
2018-12-29T12:45:10.672Z,4.84
2018-12-29T12:46:10.844Z,4.99
2018-12-29T12:47:11.009Z,4.90
2018-12-29T12:48:11.182Z,4.89
2018-12-29T12:49:11.343Z,4.94
2018-12-29T12:50:11.568Z,4.94
2018-12-29T12:51:11.729Z,4.94
2018-12-29T12:52:11.891Z,4.94
2018-12-29T12:53:12.107Z,4.90
2018-12-29T12:54:12.251Z,4.90
2018-12-29T12:55:14.194Z,5.02
2018-12-29T12:56:12.608Z,4.97
2018-12-29T12:57:13.510Z,4.90
2018-12-29T12:58:16.102Z,4.89
2018-12-29T12:59:13.159Z,4.89
2018-12-29T13:00:15.112Z,4.99
2018-12-29T13:01:13.453Z,4.87
2018-12-29T13:02:13.647Z,4.92
2018-12-29T13:03:13.821Z,4.82
2018-12-29T13:04:13.991Z,4.90
2018-12-29T13:05:14.254Z,5.04
2018-12-29T13:06:14.346Z,5.07
2018-12-29T13:07:14.486Z,5.05
2018-12-29T13:08:14.658Z,5.08
2018-12-29T13:09:14.863Z,5.02
2018-12-29T13:10:16.904Z,5.12
2018-12-29T13:11:15.051Z,5.14
2018-12-29T13:12:15.214Z,5.00
2018-12-29T13:13:15.372Z,5.04
2018-12-29T13:14:15.559Z,4.96
2018-12-29T13:15:17.149Z,4.96
2018-12-29T13:16:15.953Z,5.02
2018-12-29T13:17:16.127Z,4.99
2018-12-29T13:18:16.288Z,4.87
2018-12-29T13:19:18.160Z,4.87
2018-12-29T13:20:16.621Z,4.89